createdAt,value
2018-09-17T00:01:32.545Z,22.33
2018-09-17T00:03:59.459Z,22.32
2018-09-17T00:06:26.380Z,22.31
2018-09-17T00:08:53.307Z,22.31
2018-09-17T00:11:20.265Z,22.32
2018-09-17T00:13:47.698Z,22.32
2018-09-17T00:16:14.678Z,22.32
2018-09-17T00:18:41.663Z,22.32
2018-09-17T00:21:08.672Z,22.33
2018-09-17T00:23:35.648Z,22.32
2018-09-17T00:26:02.613Z,22.32
2018-09-17T00:28:29.550Z,22.32
2018-09-17T00:30:56.516Z,22.32
2018-09-17T00:33:23.418Z,22.31
2018-09-17T00:35:51.302Z,22.31
2018-09-17T00:38:18.250Z,22.32
2018-09-17T00:40:45.195Z,22.31
2018-09-17T00:43:12.136Z,22.32
2018-09-17T00:45:39.128Z,22.32
2018-09-17T00:48:06.118Z,22.32
2018-09-17T00:50:33.075Z,22.31
2018-09-17T00:53:00.014Z,22.32
2018-09-17T00:55:27.053Z,22.32
2018-09-17T00:57:54.039Z,22.33
2018-09-17T01:00:21.032Z,22.32
2018-09-17T01:02:48.010Z,22.32
2018-09-17T01:05:14.978Z,22.32
2018-09-17T01:07:41.986Z,22.32
2018-09-17T01:10:08.951Z,22.32
2018-09-17T01:12:35.909Z,22.32
2018-09-17T01:15:02.855Z,22.32
2018-09-17T01:17:29.787Z,22.32
2018-09-17T01:19:56.744Z,22.33
2018-09-17T01:22:23.699Z,22.33
2018-09-17T01:24:50.636Z,22.33
2018-09-17T01:27:17.575Z,22.33
2018-09-17T01:29:44.538Z,22.33
2018-09-17T01:32:11.500Z,22.33
2018-09-17T01:34:38.441Z,22.32
2018-09-17T01:37:05.365Z,22.33
2018-09-17T01:39:32.381Z,22.33
2018-09-17T01:41:59.328Z,22.33
2018-09-17T01:44:26.422Z,22.33
2018-09-17T01:46:53.372Z,22.33
2018-09-17T01:49:20.316Z,22.33
2018-09-17T01:51:47.253Z,22.32
2018-09-17T01:54:14.206Z,22.33
2018-09-17T01:56:41.153Z,22.33
2018-09-17T01:59:08.090Z,22.33
2018-09-17T02:01:35.040Z,22.33
2018-09-17T02:04:01.988Z,22.33
2018-09-17T02:06:28.944Z,22.32
2018-09-17T02:08:55.955Z,22.33
2018-09-17T02:11:22.869Z,22.33
2018-09-17T02:13:49.870Z,22.33
2018-09-17T02:16:16.874Z,22.33
2018-09-17T02:18:43.863Z,22.33
2018-09-17T02:21:11.238Z,22.33
2018-09-17T02:23:38.223Z,22.33
2018-09-17T02:26:05.254Z,22.33
2018-09-17T02:28:32.184Z,22.33
2018-09-17T02:30:59.131Z,22.33
2018-09-17T02:33:26.106Z,22.33
2018-09-17T02:35:53.114Z,22.34
2018-09-17T02:38:20.080Z,22.33
2018-09-17T02:40:47.133Z,22.33
2018-09-17T02:43:14.125Z,22.34
2018-09-17T02:45:41.067Z,22.33
2018-09-17T02:48:08.016Z,22.34
2018-09-17T02:50:35.163Z,22.34
2018-09-17T02:53:02.135Z,22.33
2018-09-17T02:55:29.091Z,22.33
2018-09-17T02:57:56.068Z,22.33
2018-09-17T03:00:23.034Z,22.33
2018-09-17T03:02:50.800Z,22.34
2018-09-17T03:05:17.756Z,22.34
2018-09-17T03:07:44.726Z,22.33
2018-09-17T03:10:11.700Z,22.33
2018-09-17T03:12:38.829Z,22.33
2018-09-17T03:15:05.785Z,22.34
2018-09-17T03:17:32.681Z,22.33
2018-09-17T03:19:59.645Z,22.33
2018-09-17T03:22:26.601Z,22.34
2018-09-17T03:24:53.597Z,22.33
2018-09-17T03:27:20.653Z,22.34
2018-09-17T03:29:47.629Z,22.34
2018-09-17T03:32:14.589Z,22.34
2018-09-17T03:34:41.577Z,22.32
2018-09-17T03:37:08.579Z,22.33
2018-09-17T03:39:35.572Z,22.33
2018-09-17T03:42:02.489Z,22.33
2018-09-17T03:44:29.448Z,22.34
2018-09-17T03:46:56.433Z,22.35
2018-09-17T03:49:23.369Z,22.34
2018-09-17T03:51:50.336Z,22.34
2018-09-17T03:54:17.324Z,22.34
2018-09-17T03:56:44.242Z,22.34
2018-09-17T03:59:11.220Z,22.34
2018-09-17T04:01:38.216Z,22.33
2018-09-17T04:04:05.181Z,22.31
2018-09-17T04:06:37.590Z,22.31
2018-09-17T04:09:05.404Z,22.30
2018-09-17T04:11:32.343Z,22.30
2018-09-17T04:13:59.274Z,22.29
2018-09-17T04:16:26.262Z,22.31
2018-09-17T04:18:53.237Z,22.32
2018-09-17T04:21:20.314Z,22.35
2018-09-17T04:23:47.243Z,22.36
2018-09-17T04:26:14.172Z,22.37
2018-09-17T04:28:41.300Z,22.35
2018-09-17T04:31:08.278Z,22.35
2018-09-17T04:33:39.474Z,22.35
2018-09-17T04:36:06.583Z,22.34
2018-09-17T04:38:33.602Z,22.34
2018-09-17T04:41:00.566Z,22.34
2018-09-17T04:43:27.529Z,22.34
2018-09-17T04:45:54.442Z,22.34
2018-09-17T04:48:21.415Z,22.34
2018-09-17T04:50:48.393Z,22.33
2018-09-17T04:53:15.411Z,22.35
2018-09-17T04:55:42.440Z,22.35
2018-09-17T04:58:09.410Z,22.33
2018-09-17T05:00:36.462Z,22.34
2018-09-17T05:03:03.494Z,22.34
2018-09-17T05:05:30.520Z,22.34
2018-09-17T05:07:57.468Z,22.35
2018-09-17T05:10:24.419Z,22.34
2018-09-17T05:12:51.405Z,22.34
2018-09-17T05:15:18.326Z,22.34
2018-09-17T05:17:45.349Z,22.35
2018-09-17T05:20:12.284Z,22.34
2018-09-17T05:22:39.258Z,22.34
2018-09-17T05:25:06.369Z,22.35
2018-09-17T05:27:33.360Z,22.35
2018-09-17T05:30:00.327Z,22.35
2018-09-17T05:32:27.312Z,22.35
2018-09-17T05:34:54.610Z,22.34
2018-09-17T05:37:21.525Z,22.34
2018-09-17T05:39:48.499Z,22.35
2018-09-17T05:42:15.442Z,22.35
2018-09-17T05:44:42.458Z,22.34
2018-09-17T05:47:09.434Z,22.34
2018-09-17T05:49:36.447Z,22.34
2018-09-17T05:52:03.381Z,22.34
2018-09-17T05:54:30.317Z,22.34
2018-09-17T05:56:57.264Z,22.35
2018-09-17T05:59:24.241Z,22.34
2018-09-17T06:01:51.205Z,22.34
2018-09-17T06:04:18.170Z,22.34
2018-09-17T06:06:45.149Z,22.35
2018-09-17T06:09:13.274Z,22.35
2018-09-17T06:11:40.255Z,22.34
2018-09-17T06:14:07.677Z,22.35
2018-09-17T06:16:34.666Z,22.34
2018-09-17T06:19:01.660Z,22.34
2018-09-17T06:21:28.620Z,22.34
2018-09-17T06:23:55.565Z,22.34
2018-09-17T06:26:22.513Z,22.34
2018-09-17T06:28:49.607Z,22.34
2018-09-17T06:31:16.528Z,22.34
2018-09-17T06:33:43.451Z,22.34
2018-09-17T06:36:10.413Z,22.33
2018-09-17T06:38:37.365Z,22.34
2018-09-17T06:41:04.374Z,22.33
2018-09-17T06:43:31.338Z,22.34
2018-09-17T06:45:58.343Z,22.34
2018-09-17T06:48:25.353Z,22.34
2018-09-17T06:50:52.326Z,22.35
2018-09-17T06:53:19.245Z,22.34
2018-09-17T06:55:46.193Z,22.33
2018-09-17T06:58:13.134Z,22.34
2018-09-17T07:00:40.109Z,22.34
2018-09-17T07:03:07.047Z,22.35
2018-09-17T07:05:34.044Z,22.34
2018-09-17T07:08:00.997Z,22.34
2018-09-17T07:10:27.978Z,22.34
2018-09-17T07:12:54.906Z,22.34
2018-09-17T07:15:21.843Z,22.34
2018-09-17T07:17:48.834Z,22.33
2018-09-17T07:20:15.778Z,22.33
2018-09-17T07:22:42.803Z,22.32
2018-09-17T07:25:09.758Z,21.38
2018-09-17T07:27:36.672Z,20.74
2018-09-17T07:30:03.594Z,20.70
2018-09-17T07:32:30.592Z,20.79
2018-09-17T07:34:57.500Z,20.49
2018-09-17T07:37:24.430Z,20.58
2018-09-17T07:39:51.320Z,20.57
2018-09-17T07:42:18.208Z,20.57
2018-09-17T07:44:45.108Z,20.58
2018-09-17T07:47:12.011Z,20.72
2018-09-17T07:49:38.946Z,20.86
2018-09-17T07:52:05.866Z,20.78
2018-09-17T07:54:32.762Z,20.80
2018-09-17T07:56:59.738Z,20.73
2018-09-17T07:59:26.653Z,20.92
2018-09-17T08:01:53.540Z,20.99
2018-09-17T08:04:20.441Z,20.82
2018-09-17T08:06:47.332Z,20.99
2018-09-17T08:09:14.996Z,21.07
2018-09-17T08:11:42.790Z,21.02
2018-09-17T08:14:09.756Z,21.13
2018-09-17T08:16:36.644Z,21.06
2018-09-17T08:19:03.610Z,21.18
2018-09-17T08:21:30.501Z,21.19
2018-09-17T08:23:57.393Z,21.25
2018-09-17T08:26:24.293Z,21.21
2018-09-17T08:28:51.189Z,21.26
2018-09-17T08:31:18.109Z,21.33
2018-09-17T08:33:45.003Z,21.42
2018-09-17T08:36:11.920Z,21.53
2018-09-17T08:38:38.835Z,21.58
2018-09-17T08:41:05.729Z,21.60
2018-09-17T08:43:32.628Z,21.70
2018-09-17T08:45:59.540Z,21.72
2018-09-17T08:48:26.433Z,21.76
2018-09-17T08:50:53.339Z,21.78
2018-09-17T08:53:20.241Z,21.78
2018-09-17T08:55:51.360Z,21.78
2018-09-17T08:58:24.366Z,21.78
2018-09-17T09:01:00.276Z,21.79
2018-09-17T09:03:29.682Z,21.80
2018-09-17T09:06:01.898Z,21.82
2018-09-17T09:08:28.789Z,21.82
2018-09-17T09:11:01.054Z,21.82
2018-09-17T09:13:33.283Z,21.83
2018-09-17T09:16:00.174Z,21.85
2018-09-17T09:18:27.074Z,21.85
2018-09-17T09:20:53.967Z,21.86
2018-09-17T09:23:20.863Z,21.87
2018-09-17T09:25:47.770Z,21.87
2018-09-17T09:28:14.711Z,21.88
2018-09-17T09:30:41.627Z,21.88
2018-09-17T09:33:08.530Z,21.89
2018-09-17T09:35:35.429Z,21.89
2018-09-17T09:38:02.371Z,21.90
2018-09-17T09:40:29.265Z,21.90
2018-09-17T09:42:56.205Z,21.91
2018-09-17T09:45:23.092Z,21.91
2018-09-17T09:47:49.988Z,21.92
2018-09-17T09:50:16.990Z,21.93
2018-09-17T09:52:43.908Z,21.92
2018-09-17T09:55:10.993Z,21.94
2018-09-17T09:57:37.949Z,21.94
2018-09-17T10:00:04.888Z,21.94
2018-09-17T10:02:37.025Z,21.94
2018-09-17T10:05:03.937Z,21.97
2018-09-17T10:07:30.879Z,21.97
2018-09-17T10:10:03.176Z,22.00
2018-09-17T10:12:35.500Z,22.00
2018-09-17T10:15:07.699Z,22.00
2018-09-17T10:18:43.498Z,22.00
2018-09-17T10:21:10.489Z,22.01
2018-09-17T10:23:37.427Z,22.02
2018-09-17T10:26:04.618Z,22.02
2018-09-17T10:28:31.724Z,22.03
2018-09-17T10:30:58.654Z,22.03
2018-09-17T10:33:25.641Z,22.05
2018-09-17T10:35:52.597Z,22.05
2018-09-17T10:38:19.572Z,22.04
2018-09-17T10:40:46.545Z,22.06
2018-09-17T10:43:13.536Z,22.05
2018-09-17T10:45:40.543Z,22.06
2018-09-17T10:48:07.468Z,22.06
2018-09-17T10:50:34.596Z,22.07
2018-09-17T10:53:01.554Z,22.07
2018-09-17T10:55:28.480Z,22.08
2018-09-17T10:57:55.390Z,22.08
2018-09-17T11:00:23.282Z,22.05
2018-09-17T11:02:50.264Z,22.05
2018-09-17T11:05:17.205Z,22.05
2018-09-17T11:07:44.182Z,22.05
2018-09-17T11:10:13.249Z,22.05
2018-09-17T11:12:40.146Z,22.05
2018-09-17T11:15:07.171Z,22.05
2018-09-17T11:17:34.134Z,22.05
2018-09-17T11:20:01.091Z,22.04
2018-09-17T11:22:28.046Z,22.04
2018-09-17T11:24:55.038Z,22.05
2018-09-17T11:27:22.003Z,22.05
2018-09-17T11:29:48.899Z,22.06
2018-09-17T11:32:15.871Z,22.07
2018-09-17T11:34:42.767Z,22.05
2018-09-17T11:37:09.686Z,22.06
2018-09-17T11:39:36.614Z,21.92
2018-09-17T11:42:03.555Z,22.05
2018-09-17T11:44:30.461Z,22.05
2018-09-17T11:46:57.368Z,22.06
2018-09-17T11:51:57.560Z,22.06
2018-09-17T11:54:24.462Z,22.07
2018-09-17T11:56:51.364Z,22.06
2018-09-17T11:59:18.268Z,22.06
2018-09-17T12:01:55.401Z,22.07
2018-09-17T12:04:27.501Z,22.06
2018-09-17T12:06:59.697Z,22.07
2018-09-17T12:09:26.613Z,22.07
2018-09-17T12:11:53.524Z,22.07
2018-09-17T12:14:20.470Z,22.07
2018-09-17T12:16:47.400Z,22.07
2018-09-17T12:19:14.305Z,22.07
2018-09-17T12:21:41.240Z,22.08
2018-09-17T12:24:08.186Z,22.08
2018-09-17T12:26:35.107Z,22.08
2018-09-17T12:29:02.089Z,22.12
2018-09-17T12:31:29.088Z,22.14
2018-09-17T12:33:56.073Z,22.16
2018-09-17T12:36:23.028Z,22.16
2018-09-17T12:38:50.029Z,22.16
2018-09-17T12:41:17.070Z,22.17
2018-09-17T12:43:44.088Z,22.17
2018-09-17T12:46:11.053Z,22.18
2018-09-17T12:48:38.035Z,22.18
2018-09-17T12:51:04.998Z,22.18
2018-09-17T12:53:32.133Z,22.20
2018-09-17T12:55:59.117Z,22.20
2018-09-17T12:58:26.138Z,22.21
2018-09-17T13:00:53.130Z,22.21
2018-09-17T13:03:20.137Z,22.21
2018-09-17T13:05:47.124Z,22.21
2018-09-17T13:08:14.248Z,22.21
2018-09-17T13:10:41.251Z,22.22
2018-09-17T13:13:08.157Z,22.22
2018-09-17T13:15:39.305Z,22.22
2018-09-17T13:18:06.289Z,22.23
2018-09-17T13:20:33.296Z,22.23
2018-09-17T13:23:00.272Z,22.24
2018-09-17T13:25:27.237Z,22.23
2018-09-17T13:27:54.234Z,22.24
2018-09-17T13:30:21.200Z,22.24
2018-09-17T13:32:48.274Z,22.24
2018-09-17T13:35:15.205Z,22.25
2018-09-17T13:37:42.177Z,22.21
2018-09-17T13:40:09.191Z,22.25
2018-09-17T13:42:36.263Z,22.26
2018-09-17T13:45:03.186Z,22.25
2018-09-17T13:47:30.194Z,22.25
2018-09-17T13:49:57.195Z,22.25
2018-09-17T13:52:24.201Z,22.22
2018-09-17T13:54:51.175Z,22.22
2018-09-17T13:57:18.129Z,22.22
2018-09-17T13:59:45.121Z,22.22
2018-09-17T14:02:12.107Z,22.22
2018-09-17T14:04:39.060Z,22.22
2018-09-17T14:07:06.031Z,22.22
2018-09-17T14:09:33.044Z,22.22
2018-09-17T14:12:00.072Z,22.22
2018-09-17T14:14:27.122Z,22.22
2018-09-17T14:16:54.109Z,22.22
2018-09-17T14:19:21.218Z,22.22
2018-09-17T14:21:48.159Z,22.22
2018-09-17T14:24:15.207Z,22.22
2018-09-17T14:26:42.243Z,22.22
2018-09-17T14:29:09.611Z,22.23
2018-09-17T14:31:41.889Z,22.22
2018-09-17T14:34:08.932Z,22.22
2018-09-17T14:36:35.923Z,22.22
2018-09-17T14:39:02.908Z,22.23
2018-09-17T14:41:29.939Z,22.23
2018-09-17T14:43:56.964Z,22.23
2018-09-17T14:46:23.967Z,22.23
2018-09-17T14:48:50.949Z,22.24
2018-09-17T14:51:17.968Z,22.24
2018-09-17T14:53:44.994Z,22.23
2018-09-17T14:56:12.000Z,22.23
2018-09-17T14:58:38.983Z,22.23
2018-09-17T15:01:06.056Z,22.23
2018-09-17T15:03:33.049Z,22.24
2018-09-17T15:06:00.017Z,22.23
2018-09-17T15:08:27.110Z,22.24
2018-09-17T15:10:54.053Z,22.24
2018-09-17T15:13:20.980Z,22.23
2018-09-17T15:15:53.120Z,22.23
2018-09-17T15:18:20.092Z,22.23
2018-09-17T15:20:46.988Z,22.23
2018-09-17T15:23:14.104Z,22.23
2018-09-17T15:25:41.012Z,22.24
2018-09-17T15:28:07.931Z,22.23
2018-09-17T15:30:34.952Z,22.24
2018-09-17T15:33:01.851Z,22.26
2018-09-17T15:35:28.910Z,22.27
2018-09-17T15:37:55.812Z,22.27
2018-09-17T15:40:22.820Z,22.27
2018-09-17T15:42:49.865Z,22.25
2018-09-17T15:45:16.772Z,22.25
2018-09-17T15:47:43.685Z,22.25
2018-09-17T15:50:10.621Z,22.26
2018-09-17T15:52:37.539Z,22.25
2018-09-17T15:55:04.476Z,22.26
2018-09-17T15:57:31.482Z,22.25
2018-09-17T15:59:58.389Z,22.25
2018-09-17T16:02:25.387Z,22.26
2018-09-17T16:04:52.295Z,22.26
2018-09-17T16:07:26.698Z,22.25
2018-09-17T16:09:53.598Z,22.25
2018-09-17T16:12:20.565Z,22.26
2018-09-17T16:14:47.527Z,22.25
2018-09-17T16:17:14.522Z,22.25
2018-09-17T16:19:41.576Z,22.25
2018-09-17T16:22:08.477Z,22.25
2018-09-17T16:24:35.465Z,22.26
2018-09-17T16:27:02.479Z,22.26
2018-09-17T16:29:29.416Z,22.26
2018-09-17T16:31:56.341Z,22.26
2018-09-17T16:34:23.298Z,22.26
2018-09-17T16:36:50.531Z,22.26
2018-09-17T16:39:17.579Z,22.25
2018-09-17T16:41:44.614Z,22.26
2018-09-17T16:44:11.526Z,22.26
2018-09-17T16:46:38.589Z,22.26
2018-09-17T16:49:05.568Z,22.26
2018-09-17T16:51:32.495Z,22.26
2018-09-17T16:53:59.558Z,22.26
2018-09-17T16:56:26.477Z,22.27
2018-09-17T16:58:53.432Z,22.26
2018-09-17T17:01:20.308Z,22.28
2018-09-17T17:03:47.198Z,22.27
2018-09-17T17:06:14.093Z,22.27
2018-09-17T17:08:41.004Z,22.27
2018-09-17T17:11:07.941Z,22.28
2018-09-17T17:13:34.942Z,22.28
2018-09-17T17:16:01.976Z,22.28
2018-09-17T17:18:28.896Z,22.28
2018-09-17T17:20:55.956Z,22.28
2018-09-17T17:23:22.866Z,22.29
2018-09-17T17:25:49.798Z,22.27
2018-09-17T17:28:17.084Z,22.28
2018-09-17T17:30:44.083Z,22.28
2018-09-17T17:33:11.107Z,22.27
2018-09-17T17:35:38.045Z,22.28
2018-09-17T17:38:05.181Z,22.29
2018-09-17T17:40:32.312Z,22.27
2018-09-17T17:42:59.018Z,22.28
2018-09-17T17:45:26.024Z,22.28
2018-09-17T17:47:52.940Z,22.28
2018-09-17T17:50:19.829Z,22.28
2018-09-17T17:52:46.733Z,22.28
2018-09-17T17:55:13.639Z,22.28
2018-09-17T17:57:40.565Z,22.28
2018-09-17T18:00:07.492Z,22.28
2018-09-17T18:02:34.545Z,22.32
2018-09-17T18:05:01.489Z,22.33
2018-09-17T18:07:28.641Z,22.34
2018-09-17T18:09:55.593Z,22.34
2018-09-17T18:12:22.559Z,22.35
2018-09-17T18:14:49.513Z,22.35
2018-09-17T18:17:16.539Z,22.35
2018-09-17T18:19:43.547Z,22.35
2018-09-17T18:22:10.493Z,22.36
2018-09-17T18:24:37.445Z,22.38
2018-09-17T18:27:04.375Z,22.35
2018-09-17T18:29:31.339Z,22.38
2018-09-17T18:31:58.255Z,22.38
2018-09-17T18:34:25.218Z,22.40
2018-09-17T18:36:52.264Z,22.36
2018-09-17T18:39:19.241Z,22.36
2018-09-17T18:41:46.169Z,22.35
2018-09-17T18:44:13.149Z,22.34
2018-09-17T18:46:40.076Z,22.34
2018-09-17T18:49:07.008Z,22.34
2018-09-17T18:51:34.063Z,22.34
2018-09-17T18:54:01.209Z,22.33
2018-09-17T18:56:28.091Z,22.33
2018-09-17T18:58:55.095Z,22.33
2018-09-17T19:01:22.057Z,22.33
2018-09-17T19:03:49.061Z,22.33
2018-09-17T19:06:16.097Z,22.33
2018-09-17T19:08:43.021Z,22.33
2018-09-17T19:11:10.034Z,22.33
2018-09-17T19:13:37.047Z,22.32
2018-09-17T19:16:04.001Z,22.33
2018-09-17T19:18:30.977Z,22.33
2018-09-17T19:20:58.299Z,22.32
2018-09-17T19:23:30.300Z,22.33
2018-09-17T19:25:57.381Z,22.33
2018-09-17T19:28:29.731Z,22.33
2018-09-17T19:30:56.748Z,22.40
2018-09-17T19:33:23.877Z,22.38
2018-09-17T19:35:50.988Z,22.39
2018-09-17T19:38:23.235Z,22.37
2018-09-17T19:40:50.167Z,22.37
2018-09-17T19:43:17.147Z,22.37
2018-09-17T19:45:49.406Z,22.37
2018-09-17T19:48:16.551Z,22.36
2018-09-17T19:52:51.364Z,22.37
2018-09-17T19:55:18.380Z,22.37
2018-09-17T19:57:50.828Z,22.37
2018-09-17T20:00:17.777Z,22.36
2018-09-17T20:02:44.775Z,22.36
2018-09-17T20:05:17.210Z,22.40
2018-09-17T20:07:44.221Z,22.42
2018-09-17T20:10:11.237Z,22.41
2018-09-17T20:12:38.446Z,22.41
2018-09-17T20:15:05.460Z,22.41
2018-09-17T20:17:32.491Z,22.40
2018-09-17T20:19:59.491Z,22.41
2018-09-17T20:22:26.460Z,22.41
2018-09-17T20:24:53.437Z,22.41
2018-09-17T20:27:20.504Z,22.40
2018-09-17T20:29:47.444Z,22.39
2018-09-17T20:32:14.351Z,22.40
2018-09-17T20:34:41.374Z,22.41
2018-09-17T20:37:08.370Z,22.40
2018-09-17T20:39:35.444Z,22.40
2018-09-17T20:42:02.489Z,22.41
2018-09-17T20:44:29.492Z,22.40
2018-09-17T20:46:56.494Z,22.40
2018-09-17T20:49:23.585Z,22.40
2018-09-17T20:51:50.595Z,22.41
2018-09-17T20:54:17.949Z,22.41
2018-09-17T20:56:44.970Z,22.41
2018-09-17T20:59:11.983Z,22.40
2018-09-17T21:01:39.177Z,22.41
2018-09-17T21:04:06.206Z,22.41
2018-09-17T21:06:33.192Z,22.41
2018-09-17T21:09:00.671Z,22.40
2018-09-17T21:11:27.697Z,22.41
2018-09-17T21:13:54.686Z,22.40
2018-09-17T21:16:21.629Z,22.41
2018-09-17T21:18:48.743Z,22.41
2018-09-17T21:21:15.767Z,22.41
2018-09-17T21:23:42.759Z,22.41
2018-09-17T21:26:09.940Z,22.41
2018-09-17T21:28:36.995Z,22.41
2018-09-17T21:31:04.096Z,22.41
2018-09-17T21:33:31.093Z,22.41
2018-09-17T21:35:58.129Z,22.41
2018-09-17T21:38:25.075Z,22.40
2018-09-17T21:40:52.084Z,22.41
2018-09-17T21:43:19.198Z,22.42
2018-09-17T21:45:46.129Z,22.41
2018-09-17T21:48:13.111Z,22.41
2018-09-17T21:50:40.123Z,22.41
2018-09-17T21:53:07.386Z,22.41
2018-09-17T21:55:34.368Z,22.42
2018-09-17T21:58:01.397Z,22.41
2018-09-17T22:00:32.569Z,22.40
2018-09-17T22:02:59.607Z,22.41
2018-09-17T22:05:26.562Z,22.42
2018-09-17T22:07:53.593Z,22.42
2018-09-17T22:10:20.592Z,22.42
2018-09-17T22:12:47.578Z,22.41
2018-09-17T22:15:14.590Z,22.41
2018-09-17T22:17:41.552Z,22.42
2018-09-17T22:20:08.537Z,22.42
2018-09-17T22:22:35.532Z,22.41
2018-09-17T22:25:02.525Z,22.41
2018-09-17T22:27:29.500Z,22.41
2018-09-17T22:29:56.468Z,22.41
2018-09-17T22:32:23.444Z,22.40
2018-09-17T22:34:50.417Z,22.41
2018-09-17T22:37:17.448Z,22.41
2018-09-17T22:39:44.489Z,22.41
2018-09-17T22:42:11.557Z,22.41
2018-09-17T22:44:38.533Z,22.42
2018-09-17T22:47:05.833Z,22.42
2018-09-17T22:49:32.948Z,22.40
2018-09-17T22:51:59.985Z,22.42
2018-09-17T22:54:26.946Z,22.41
2018-09-17T22:56:53.945Z,22.41
2018-09-17T22:59:20.925Z,22.43
2018-09-17T23:01:47.896Z,22.42
2018-09-17T23:04:14.841Z,22.41
2018-09-17T23:06:41.909Z,22.43
2018-09-17T23:09:10.217Z,22.42
2018-09-17T23:11:37.242Z,22.43
2018-09-17T23:14:04.258Z,22.42
2018-09-17T23:16:31.236Z,22.42
2018-09-17T23:18:58.227Z,22.43
2018-09-17T23:21:25.250Z,22.43
2018-09-17T23:23:52.219Z,22.43
2018-09-17T23:26:19.238Z,22.43
2018-09-17T23:28:46.265Z,22.42
2018-09-17T23:31:13.262Z,22.42
2018-09-17T23:33:40.272Z,22.43
2018-09-17T23:36:07.273Z,22.42
2018-09-17T23:38:34.259Z,22.43
2018-09-17T23:41:01.339Z,22.43
2018-09-17T23:43:28.369Z,22.43
2018-09-17T23:45:55.442Z,22.43
2018-09-17T23:48:22.504Z,22.43
2018-09-17T23:50:49.521Z,22.43
2018-09-17T23:53:16.492Z,22.42
2018-09-17T23:55:43.533Z,22.43
2018-09-17T23:58:10.570Z,22.43
